Time;durP1;ratioP1;P1;durP2;ratioP2;P2;SDS_P1;SDS_P2;PMS_P1;PMS_P2;Temp;Humidity;BMP_temperature;BMP_pressure;BME280_temperature;BME280_humidity;BME280_pressure;Samples;Min_cycle;Max_cycle;Signal;HPM_P1;HPM_P2
2022/11/07 00:01:51;;;;;;;6.70;6.30;;;10.70;99.90;;;;;;5097300;28;20982;-67
2022/11/07 00:04:18;;;;;;;7.50;6.93;;;10.70;99.90;;;;;;5098838;28;20507;-68
2022/11/07 00:06:45;;;;;;;8.37;7.50;;;10.70;99.90;;;;;;5099915;28;20496;-68
2022/11/07 00:09:12;;;;;;;7.83;7.23;;;10.70;99.90;;;;;;5095242;28;21005;-68
2022/11/07 00:11:40;;;;;;;7.93;7.23;;;10.80;99.90;;;;;;5094857;28;20456;-68
2022/11/07 00:14:06;;;;;;;7.00;6.50;;;10.80;99.90;;;;;;5098624;28;20835;-69
2022/11/07 00:16:35;;;;;;;7.83;7.13;;;10.80;99.90;;;;;;5096791;28;20454;-68
2022/11/07 00:19:04;;;;;;;7.73;7.10;;;10.80;99.90;;;;;;5100863;28;20470;-67
2022/11/07 00:21:31;;;;;;;7.70;7.20;;;10.80;99.90;;;;;;5097906;28;20499;-68
2022/11/07 00:23:58;;;;;;;8.20;7.60;;;10.80;99.90;;;;;;5096934;28;20545;-69
2022/11/07 00:26:26;;;;;;;8.10;7.30;;;10.70;99.90;;;;;;5098850;28;21007;-67
2022/11/07 00:28:53;;;;;;;8.60;7.20;;;10.70;99.90;;;;;;5098604;28;20552;-71
2022/11/07 00:31:20;;;;;;;7.70;7.20;;;10.70;99.90;;;;;;5091781;28;20472;-67
2022/11/07 00:33:48;;;;;;;7.40;6.70;;;10.60;99.90;;;;;;5098006;28;20457;-68
2022/11/07 00:36:20;;;;;;;7.33;6.73;;;10.60;99.90;;;;;;5109715;28;20453;-69
2022/11/07 00:38:47;;;;;;;7.97;7.47;;;10.60;99.90;;;;;;5109784;28;20814;-68
2022/11/07 00:41:14;;;;;;;9.50;6.87;;;10.70;99.90;;;;;;5109537;28;20510;-67
2022/11/07 00:43:41;;;;;;;7.30;6.70;;;10.70;99.90;;;;;;5110033;28;20452;-68
2022/11/07 00:46:10;;;;;;;9.03;7.17;;;10.70;99.90;;;;;;5109081;28;20570;-67
2022/11/07 00:48:36;;;;;;;11.30;7.07;;;10.80;99.90;;;;;;5109971;28;20461;-69
2022/11/07 00:51:09;;;;;;;8.97;8.00;;;10.80;99.90;;;;;;5109772;28;20452;-68
2022/11/07 00:53:37;;;;;;;7.80;7.10;;;10.80;99.90;;;;;;5109723;28;20490;-69
2022/11/07 00:56:06;;;;;;;7.50;6.80;;;10.80;99.90;;;;;;5109647;28;20457;-68
2022/11/07 00:58:33;;;;;;;7.87;7.27;;;10.80;99.90;;;;;;5109379;28;20799;-68
2022/11/07 01:07:07;;;;;;;6.70;6.30;;;10.80;99.90;;;;;;5108696;28;20489;-68
2022/11/07 01:09:35;;;;;;;7.93;6.13;;;10.70;99.90;;;;;;5109521;28;20460;-68
2022/11/07 01:12:01;;;;;;;7.20;6.60;;;10.70;99.90;;;;;;5109626;28;20468;-68
2022/11/07 01:14:30;;;;;;;7.93;6.40;;;10.70;99.90;;;;;;5108098;28;20470;-68
2022/11/07 01:16:57;;;;;;;6.83;6.53;;;10.70;99.90;;;;;;5110032;28;20456;-68
2022/11/07 01:19:23;;;;;;;6.87;6.30;;;10.70;99.90;;;;;;5111007;28;20449;-68
2022/11/07 01:21:51;;;;;;;7.97;6.63;;;10.70;99.90;;;;;;5110118;28;20472;-68
2022/11/07 01:24:20;;;;;;;7.63;7.13;;;10.60;99.90;;;;;;5110165;28;20532;-70
2022/11/07 01:26:47;;;;;;;6.77;6.20;;;10.70;99.90;;;;;;5110017;28;20453;-67
2022/11/07 01:29:15;;;;;;;6.90;6.27;;;10.70;99.90;;;;;;5110557;28;20445;-68
2022/11/07 01:35:04;;;;;;;7.13;6.40;;;10.70;99.90;;;;;;5106410;28;20495;-68
2022/11/07 01:37:31;;;;;;;6.97;6.30;;;10.60;99.90;;;;;;5100480;28;20461;-68
2022/11/07 01:39:59;;;;;;;6.73;6.10;;;10.70;99.90;;;;;;5096284;28;20523;-68
2022/11/07 01:42:27;;;;;;;6.17;5.67;;;10.60;99.90;;;;;;5100853;28;20465;-68
2022/11/07 01:44:56;;;;;;;6.60;6.00;;;10.70;99.90;;;;;;5089452;28;21019;-69
2022/11/07 01:47:26;;;;;;;19.30;6.30;;;10.70;99.90;;;;;;5094227;28;20977;-68
2022/11/07 01:49:54;;;;;;;11.60;6.10;;;10.70;99.90;;;;;;5097925;28;20462;-67
2022/11/07 01:52:24;;;;;;;7.10;6.50;;;10.80;99.90;;;;;;5100899;28;20467;-69
2022/11/07 01:54:56;;;;;;;6.37;5.67;;;10.80;99.90;;;;;;5102722;28;20496;-68
2022/11/07 01:57:30;;;;;;;12.17;6.03;;;10.80;99.90;;;;;;5105721;28;20469;-68
2022/11/07 02:00:01;;;;;;;9.37;6.00;;;10.90;99.90;;;;;;5102012;28;20935;-70
2022/11/07 02:02:29;;;;;;;11.63;6.50;;;10.90;99.90;;;;;;5105699;28;20468;-69
2022/11/07 02:04:58;;;;;;;7.40;6.47;;;10.80;99.90;;;;;;5099962;28;20500;-70
2022/11/07 02:07:26;;;;;;;7.33;6.53;;;10.90;99.90;;;;;;5098189;28;20457;-68
2022/11/07 02:09:54;;;;;;;7.70;6.33;;;10.90;99.90;;;;;;5104716;28;20458;-68
2022/11/07 02:12:25;;;;;;;8.90;6.40;;;10.90;99.90;;;;;;5099498;28;21099;-68
2022/11/07 02:14:53;;;;;;;8.87;5.80;;;10.90;99.90;;;;;;5101357;28;20791;-68
2022/11/07 02:17:19;;;;;;;6.83;6.23;;;11.00;99.90;;;;;;5098441;28;20450;-69
2022/11/07 02:19:49;;;;;;;6.60;6.10;;;10.90;99.90;;;;;;5103892;28;20464;-69
2022/11/07 02:22:24;;;;;;;6.77;6.17;;;11.00;99.90;;;;;;5098489;28;20973;-68
2022/11/07 02:24:56;;;;;;;8.13;7.30;;;11.00;99.90;;;;;;5095639;28;20544;-69
2022/11/07 02:27:27;;;;;;;9.23;6.20;;;10.90;99.90;;;;;;5099230;28;20464;-68
2022/11/07 02:29:56;;;;;;;9.60;6.60;;;11.00;99.90;;;;;;5099907;28;20462;-68
2022/11/07 02:32:23;;;;;;;10.00;7.03;;;11.00;99.90;;;;;;5099149;28;20472;-68
2022/11/07 02:34:56;;;;;;;12.47;6.27;;;10.90;99.90;;;;;;5101711;28;20485;-69
2022/11/07 02:37:27;;;;;;;8.60;6.30;;;10.90;99.90;;;;;;5099439;28;20465;-68
2022/11/07 02:39:55;;;;;;;9.10;6.43;;;11.00;99.90;;;;;;5103598;28;20788;-69
2022/11/07 02:42:22;;;;;;;6.87;6.17;;;11.00;99.90;;;;;;5101067;28;20521;-68
2022/11/07 02:44:50;;;;;;;9.93;6.03;;;10.90;99.90;;;;;;5101134;28;21098;-68
2022/11/07 02:47:17;;;;;;;13.73;6.37;;;11.00;99.90;;;;;;5094938;28;20845;-70
2022/11/07 02:49:43;;;;;;;7.23;6.53;;;10.90;99.90;;;;;;5104251;28;20970;-69
2022/11/07 02:52:10;;;;;;;10.57;6.50;;;11.00;99.90;;;;;;5095200;28;20729;-68
2022/11/07 02:54:38;;;;;;;9.40;6.37;;;11.00;99.90;;;;;;5102570;28;20508;-69
2022/11/07 02:57:06;;;;;;;11.00;6.93;;;10.90;99.90;;;;;;5105905;28;20460;-68
2022/11/07 02:59:33;;;;;;;7.87;7.10;;;10.90;99.90;;;;;;5101077;28;20802;-68
2022/11/07 03:01:59;;;;;;;9.87;6.40;;;10.90;99.90;;;;;;5095638;28;20476;-69
2022/11/07 03:04:27;;;;;;;7.07;6.47;;;10.90;99.90;;;;;;5097175;28;20469;-70
2022/11/07 03:06:55;;;;;;;7.83;6.63;;;10.90;99.90;;;;;;5098886;28;20977;-68
2022/11/07 03:09:21;;;;;;;8.03;6.10;;;11.00;99.90;;;;;;5099421;28;20468;-71
2022/11/07 03:11:48;;;;;;;10.90;6.10;;;11.00;99.90;;;;;;5097142;28;20458;-68
2022/11/07 03:14:16;;;;;;;6.27;5.73;;;11.00;99.90;;;;;;5097449;28;20455;-68
2022/11/07 03:16:43;;;;;;;7.50;6.40;;;11.00;99.90;;;;;;5095806;28;20461;-68
2022/11/07 03:19:10;;;;;;;10.77;6.40;;;11.10;99.90;;;;;;5102220;28;20457;-68
2022/11/07 03:21:38;;;;;;;12.63;6.93;;;11.10;99.90;;;;;;5102813;28;20899;-70
2022/11/07 03:24:06;;;;;;;12.00;7.40;;;11.10;99.90;;;;;;5102857;28;20464;-69
2022/11/07 03:26:33;;;;;;;7.57;6.97;;;11.10;99.90;;;;;;5097542;28;20545;-71
2022/11/07 03:28:59;;;;;;;14.17;6.93;;;11.00;99.90;;;;;;5101317;28;20464;-70
2022/11/07 03:31:28;;;;;;;12.37;7.20;;;11.10;99.90;;;;;;5095176;28;20462;-68
2022/11/07 03:33:54;;;;;;;10.47;7.50;;;11.00;99.90;;;;;;5097652;28;20665;-69
2022/11/07 03:36:21;;;;;;;9.27;6.30;;;11.00;99.90;;;;;;5099384;28;20553;-70
2022/11/07 03:38:48;;;;;;;9.63;6.77;;;11.10;99.90;;;;;;5102592;28;20472;-70
2022/11/07 03:41:16;;;;;;;8.07;6.87;;;11.10;99.90;;;;;;5097634;28;20464;-68
2022/11/07 03:43:44;;;;;;;9.03;7.30;;;11.00;99.90;;;;;;5098921;28;20465;-68
2022/11/07 03:46:10;;;;;;;7.80;7.17;;;11.00;99.90;;;;;;5101689;28;20573;-70
2022/11/07 03:48:38;;;;;;;9.40;7.00;;;10.90;99.90;;;;;;5099037;28;20464;-70
2022/11/07 03:51:07;;;;;;;7.27;6.40;;;10.90;99.90;;;;;;5102990;28;20469;-68
2022/11/07 03:53:34;;;;;;;8.70;6.77;;;10.90;99.90;;;;;;5094234;28;21117;-68
2022/11/07 03:56:06;;;;;;;9.30;6.50;;;10.90;99.90;;;;;;5097210;28;20468;-69
2022/11/07 03:58:33;;;;;;;7.47;6.77;;;10.90;99.90;;;;;;5096881;28;20535;-70
2022/11/07 04:01:01;;;;;;;7.87;7.13;;;10.90;99.90;;;;;;5102293;28;21003;-69
2022/11/07 04:03:28;;;;;;;10.90;7.07;;;10.90;99.90;;;;;;5103448;28;20492;-69
2022/11/07 04:05:56;;;;;;;10.13;7.50;;;10.90;99.90;;;;;;5098062;28;20489;-68
2022/11/07 04:08:23;;;;;;;9.30;6.47;;;10.90;99.90;;;;;;5095766;28;20462;-69
2022/11/07 04:10:50;;;;;;;7.93;6.90;;;10.80;99.90;;;;;;5099428;28;21119;-68
2022/11/07 04:18:46;;;;;;;15.00;7.90;;;10.80;99.90;;;;;;5090684;28;20912;-68
2022/11/07 04:21:15;;;;;;;13.57;7.10;;;10.80;99.90;;;;;;5097404;28;20469;-68
2022/11/07 04:23:43;;;;;;;8.50;7.60;;;10.80;99.90;;;;;;5100361;28;20453;-68
2022/11/07 04:28:54;;;;;;;10.40;7.50;;;10.90;99.90;;;;;;5095770;28;20460;-70
2022/11/07 04:31:21;;;;;;;7.70;7.10;;;10.80;99.90;;;;;;5100027;28;20465;-70
2022/11/07 04:33:48;;;;;;;10.10;7.27;;;10.80;99.90;;;;;;5094478;28;20477;-69
2022/11/07 04:36:17;;;;;;;11.70;7.30;;;10.70;99.90;;;;;;5103290;28;20488;-69
2022/11/07 04:38:44;;;;;;;9.17;7.20;;;10.70;99.90;;;;;;5099444;28;20466;-68
2022/11/07 04:41:19;;;;;;;13.07;7.90;;;10.70;99.90;;;;;;5098357;28;20523;-70
2022/11/07 04:43:47;;;;;;;10.40;7.50;;;10.70;99.90;;;;;;5098761;28;20794;-68
2022/11/07 04:46:15;;;;;;;14.50;7.87;;;10.70;99.90;;;;;;5090340;28;20929;-69
2022/11/07 04:48:41;;;;;;;8.33;7.10;;;10.80;99.90;;;;;;5099838;28;20457;-72
2022/11/07 04:51:14;;;;;;;8.60;7.10;;;10.80;99.90;;;;;;5094345;28;20484;-71
2022/11/07 04:53:42;;;;;;;25.77;7.40;;;10.80;99.90;;;;;;5103938;28;20571;-71
2022/11/07 04:56:09;;;;;;;15.87;7.23;;;10.80;99.90;;;;;;5093980;28;20490;-71
2022/11/07 04:58:37;;;;;;;8.80;7.17;;;10.90;99.90;;;;;;5100434;28;20507;-70
2022/11/07 05:01:03;;;;;;;12.93;7.87;;;10.90;99.90;;;;;;5090950;28;20495;-68
2022/11/07 05:03:30;;;;;;;10.90;7.50;;;10.90;99.90;;;;;;5097087;28;20465;-68
2022/11/07 05:05:58;;;;;;;11.07;7.67;;;10.90;99.90;;;;;;5090826;28;20492;-68
2022/11/07 05:08:24;;;;;;;7.93;7.20;;;11.00;99.90;;;;;;5091495;28;21042;-70
2022/11/07 05:10:53;;;;;;;8.67;7.97;;;11.00;99.90;;;;;;5093599;28;21137;-71
2022/11/07 05:13:20;;;;;;;11.97;7.90;;;11.00;99.90;;;;;;5097998;28;20526;-68
2022/11/07 05:15:47;;;;;;;8.27;7.47;;;11.00;99.90;;;;;;5098347;28;20534;-68
2022/11/07 05:18:14;;;;;;;10.03;7.97;;;11.00;99.90;;;;;;5096982;28;20460;-68
2022/11/07 05:20:41;;;;;;;10.50;8.30;;;11.00;99.90;;;;;;5092354;28;20924;-69
2022/11/07 05:23:13;;;;;;;13.90;9.40;;;11.00;99.90;;;;;;5094561;28;20883;-69
2022/11/07 05:25:41;;;;;;;13.83;9.07;;;11.10;99.90;;;;;;5097158;28;20473;-68
2022/11/07 05:28:10;;;;;;;10.93;8.80;;;11.10;99.90;;;;;;5100647;28;20461;-69
2022/11/07 05:30:40;;;;;;;8.97;8.03;;;11.10;99.90;;;;;;5098829;28;20457;-68
2022/11/07 05:33:07;;;;;;;11.50;10.37;;;11.20;99.90;;;;;;5100923;28;20463;-69
2022/11/07 05:35:34;;;;;;;11.03;8.80;;;11.20;99.90;;;;;;5101317;28;20489;-69
2022/11/07 05:38:01;;;;;;;13.77;8.40;;;11.30;99.90;;;;;;5102641;28;20494;-69
2022/11/07 05:40:27;;;;;;;12.07;8.80;;;11.40;99.90;;;;;;5095647;28;20465;-68
2022/11/07 05:42:59;;;;;;;11.93;8.53;;;11.40;99.90;;;;;;5101943;28;20464;-69
2022/11/07 05:45:28;;;;;;;11.33;8.70;;;11.50;99.90;;;;;;5094361;27;20472;-69
2022/11/07 05:48:00;;;;;;;10.00;9.00;;;11.60;99.90;;;;;;5097253;28;20459;-70
2022/11/07 05:50:27;;;;;;;9.53;8.53;;;11.70;99.90;;;;;;5100336;28;20465;-68
2022/11/07 05:52:55;;;;;;;10.20;9.20;;;11.80;99.90;;;;;;5097750;28;21105;-68
2022/11/07 05:55:22;;;;;;;15.43;10.20;;;11.80;99.90;;;;;;5100785;28;20481;-68
2022/11/07 05:57:50;;;;;;;11.10;9.53;;;11.80;99.90;;;;;;5099235;28;20513;-70
2022/11/07 06:00:17;;;;;;;10.80;9.20;;;11.90;99.90;;;;;;5094982;28;20476;-69
2022/11/07 06:02:54;;;;;;;9.87;9.07;;;11.90;99.90;;;;;;5096363;28;20457;-68
2022/11/07 06:05:21;;;;;;;10.30;9.57;;;11.90;99.90;;;;;;5095854;28;20468;-69
2022/11/07 06:07:48;;;;;;;13.87;10.37;;;11.80;99.90;;;;;;5097711;28;20600;-70
2022/11/07 06:10:17;;;;;;;15.60;9.60;;;11.80;99.90;;;;;;5096996;27;20462;-69
2022/11/07 06:12:44;;;;;;;9.90;8.73;;;11.80;99.90;;;;;;5099176;28;20472;-70
2022/11/07 06:15:11;;;;;;;14.33;9.10;;;11.90;99.90;;;;;;5092304;28;20968;-69
2022/11/07 06:17:38;;;;;;;9.60;8.77;;;11.90;99.90;;;;;;5098064;28;20948;-69
2022/11/07 06:20:07;;;;;;;10.27;9.50;;;12.00;99.90;;;;;;5094197;28;20457;-69
2022/11/07 06:22:35;;;;;;;12.70;9.60;;;12.00;99.90;;;;;;5101284;28;20505;-69
2022/11/07 06:25:03;;;;;;;11.20;8.97;;;12.10;99.90;;;;;;5100625;28;20465;-69
2022/11/07 06:27:31;;;;;;;10.87;9.37;;;12.10;99.90;;;;;;5093416;28;20497;-69
2022/11/07 06:29:58;;;;;;;11.00;9.50;;;12.10;99.90;;;;;;5098612;28;20457;-71
2022/11/07 06:32:24;;;;;;;16.07;10.00;;;12.20;99.90;;;;;;5098586;28;20463;-69
2022/11/07 06:34:52;;;;;;;12.80;9.63;;;12.20;99.90;;;;;;5099899;28;20520;-70
2022/11/07 06:37:20;;;;;;;15.20;9.40;;;12.20;99.90;;;;;;5099736;28;20923;-71
2022/11/07 06:39:46;;;;;;;14.97;9.50;;;12.20;99.90;;;;;;5095650;28;20948;-69
2022/11/07 06:42:13;;;;;;;11.90;9.60;;;12.20;99.90;;;;;;5092917;28;21187;-68
2022/11/07 06:44:40;;;;;;;17.50;10.27;;;12.20;99.90;;;;;;5094826;28;20975;-70
2022/11/07 06:47:07;;;;;;;18.17;9.20;;;12.20;99.90;;;;;;5096725;28;21034;-69
2022/11/07 06:49:33;;;;;;;10.00;9.03;;;12.30;99.90;;;;;;5100396;28;20456;-68
2022/11/07 06:52:01;;;;;;;12.37;9.40;;;12.30;99.90;;;;;;5097569;28;20946;-68
2022/11/07 06:54:29;;;;;;;10.03;9.13;;;12.30;99.90;;;;;;5103891;28;20485;-71
2022/11/07 06:56:56;;;;;;;16.03;9.90;;;12.30;99.90;;;;;;5097884;28;20518;-70
2022/11/07 06:59:23;;;;;;;12.27;10.00;;;12.40;99.90;;;;;;5098914;28;20464;-69
2022/11/07 07:01:49;;;;;;;15.10;10.80;;;12.40;99.90;;;;;;5095648;28;20461;-71
2022/11/07 07:04:17;;;;;;;13.23;11.73;;;12.50;99.90;;;;;;5101202;28;20596;-70
2022/11/07 07:06:45;;;;;;;14.90;10.80;;;12.50;99.90;;;;;;5101082;28;20493;-70
2022/11/07 07:09:12;;;;;;;13.07;11.07;;;12.60;99.90;;;;;;5094887;28;20493;-71
2022/11/07 07:11:41;;;;;;;10.83;9.80;;;12.60;99.90;;;;;;5093252;28;20462;-68
2022/11/07 07:14:08;;;;;;;12.37;10.90;;;12.70;99.90;;;;;;5098872;28;20827;-70
2022/11/07 07:16:35;;;;;;;10.87;9.97;;;12.80;99.90;;;;;;5095046;28;20450;-69
2022/11/07 07:19:01;;;;;;;10.93;9.80;;;12.80;99.90;;;;;;5100199;28;20461;-70
2022/11/07 07:21:29;;;;;;;13.57;11.37;;;12.80;99.90;;;;;;5095280;28;20462;-69
2022/11/07 07:23:56;;;;;;;10.00;9.07;;;12.80;99.90;;;;;;5097354;28;20469;-69
2022/11/07 07:26:24;;;;;;;9.90;9.07;;;12.80;99.90;;;;;;5099860;28;20481;-68
2022/11/07 07:28:54;;;;;;;17.67;10.40;;;12.90;99.90;;;;;;5099753;28;20556;-68
2022/11/07 07:31:23;;;;;;;11.47;9.80;;;12.90;99.90;;;;;;5098281;28;20461;-68
2022/11/07 07:33:50;;;;;;;11.60;10.03;;;12.90;99.90;;;;;;5094627;28;20466;-69
2022/11/07 07:36:17;;;;;;;11.30;9.80;;;13.00;99.90;;;;;;5097978;28;20898;-70
2022/11/07 07:38:44;;;;;;;10.37;9.53;;;13.00;99.90;;;;;;5099556;28;20900;-70
2022/11/07 07:41:11;;;;;;;14.50;10.20;;;13.10;99.90;;;;;;5101700;28;20462;-68
2022/11/07 07:43:37;;;;;;;10.90;9.83;;;13.10;99.90;;;;;;5099511;28;20456;-68
2022/11/07 07:46:07;;;;;;;11.53;10.43;;;13.20;99.90;;;;;;5102478;28;20936;-70
2022/11/07 07:48:35;;;;;;;12.50;10.50;;;13.20;99.90;;;;;;5099297;28;20453;-69
2022/11/07 07:51:02;;;;;;;18.23;11.27;;;13.30;99.90;;;;;;5096894;28;20819;-70
2022/11/07 07:53:30;;;;;;;11.70;10.50;;;13.40;99.90;;;;;;5097093;28;20542;-68
2022/11/07 07:55:57;;;;;;;15.97;11.60;;;13.40;99.90;;;;;;5099213;28;20863;-71
2022/11/07 07:58:24;;;;;;;14.73;11.90;;;13.40;99.90;;;;;;5098209;28;20842;-71
2022/11/07 08:00:52;;;;;;;12.07;10.77;;;13.40;99.90;;;;;;5096809;28;20461;-71
2022/11/07 08:03:21;;;;;;;12.20;10.90;;;13.50;99.90;;;;;;5098889;28;20811;-68
2022/11/07 08:05:53;;;;;;;12.70;11.10;;;13.40;99.90;;;;;;5091053;28;20505;-70
2022/11/07 08:08:20;;;;;;;13.73;11.40;;;13.50;99.90;;;;;;5097443;28;20492;-68
2022/11/07 08:10:53;;;;;;;12.43;11.03;;;13.50;99.90;;;;;;5097197;28;20564;-70
2022/11/07 08:13:21;;;;;;;17.93;11.50;;;13.50;99.90;;;;;;5097258;28;20457;-68
2022/11/07 08:15:48;;;;;;;14.53;11.40;;;13.60;99.90;;;;;;5093518;28;20504;-68
2022/11/07 08:18:16;;;;;;;14.10;12.27;;;13.60;99.90;;;;;;5098392;28;20469;-70
2022/11/07 08:20:45;;;;;;;15.40;11.47;;;13.60;99.90;;;;;;5103666;28;20488;-68
2022/11/07 08:23:11;;;;;;;13.70;12.30;;;13.70;99.90;;;;;;5102156;28;20987;-70
2022/11/07 08:25:39;;;;;;;15.77;12.13;;;13.80;99.90;;;;;;5101221;28;20851;-69
2022/11/07 08:28:07;;;;;;;12.80;11.50;;;13.80;99.90;;;;;;5095707;28;20482;-71
2022/11/07 08:30:34;;;;;;;14.03;11.83;;;13.90;99.90;;;;;;5097162;28;20807;-68
2022/11/07 08:33:01;;;;;;;13.43;12.20;;;13.90;99.90;;;;;;5100089;28;20957;-70
2022/11/07 08:35:28;;;;;;;16.57;12.10;;;13.90;99.90;;;;;;5099795;28;20984;-70
2022/11/07 08:37:57;;;;;;;16.50;12.10;;;13.90;99.90;;;;;;5094452;28;20462;-70
2022/11/07 08:40:24;;;;;;;15.97;12.40;;;13.90;99.90;;;;;;5087610;28;20760;-69
2022/11/07 08:42:51;;;;;;;13.77;12.37;;;14.00;99.90;;;;;;5085365;28;20908;-68
2022/11/07 08:45:18;;;;;;;14.40;12.90;;;14.10;99.90;;;;;;5096142;28;21046;-68
2022/11/07 08:47:45;;;;;;;14.00;12.40;;;14.20;99.90;;;;;;5092809;28;21079;-67
2022/11/07 08:50:12;;;;;;;14.70;13.20;;;14.30;99.90;;;;;;5094603;28;20461;-71
2022/11/07 08:52:39;;;;;;;13.20;12.00;;;14.40;99.90;;;;;;5089953;28;20936;-68
2022/11/07 08:55:08;;;;;;;13.47;12.37;;;14.50;99.90;;;;;;5097560;28;21133;-70
2022/11/07 08:57:36;;;;;;;15.70;12.77;;;14.50;99.90;;;;;;5100223;28;20486;-69
2022/11/07 09:00:04;;;;;;;14.30;12.80;;;14.60;99.90;;;;;;5091658;28;20469;-69
2022/11/07 09:02:30;;;;;;;13.67;12.37;;;14.40;99.90;;;;;;5094457;28;20461;-70
2022/11/07 09:04:57;;;;;;;18.30;12.63;;;14.40;99.90;;;;;;5090538;28;20465;-68
2022/11/07 09:07:24;;;;;;;13.40;12.17;;;14.50;99.90;;;;;;5090397;28;21330;-69
2022/11/07 09:09:51;;;;;;;13.80;12.17;;;14.50;99.90;;;;;;5091482;28;20473;-68
2022/11/07 09:12:19;;;;;;;15.30;13.90;;;14.40;99.90;;;;;;5093776;28;20646;-69
2022/11/07 09:14:46;;;;;;;16.03;14.33;;;14.00;99.90;;;;;;5098575;28;20457;-69
2022/11/07 09:17:12;;;;;;;14.17;12.70;;;13.70;99.90;;;;;;5091289;28;20466;-68
2022/11/07 09:19:39;;;;;;;16.13;14.47;;;13.60;99.90;;;;;;5095007;28;20461;-69
2022/11/07 09:22:06;;;;;;;20.00;18.40;;;13.50;99.90;;;;;;5091879;28;20469;-67
2022/11/07 09:24:32;;;;;;;26.27;19.27;;;13.30;99.90;;;;;;5088517;28;20469;-68
2022/11/07 09:26:59;;;;;;;21.27;19.10;;;13.20;99.90;;;;;;5090587;28;21319;-69
2022/11/07 09:29:27;;;;;;;21.00;17.50;;;13.20;99.90;;;;;;5089346;28;20756;-69
2022/11/07 09:31:55;;;;;;;18.07;16.43;;;13.10;99.90;;;;;;5091332;28;20489;-68
2022/11/07 09:34:21;;;;;;;18.97;16.67;;;13.10;99.90;;;;;;5093521;28;21042;-68
2022/11/07 09:36:49;;;;;;;17.17;15.60;;;13.10;99.90;;;;;;5090545;28;20943;-68
2022/11/07 09:39:16;;;;;;;18.00;15.93;;;13.10;99.90;;;;;;5090992;28;20474;-70
2022/11/07 09:41:55;;;;;;;18.87;16.73;;;13.10;99.90;;;;;;5089507;28;20521;-67
2022/11/07 09:44:40;;;;;;;19.77;17.70;;;13.00;99.90;;;;;;5085156;28;20469;-68
2022/11/07 09:47:19;;;;;;;18.60;17.20;;;12.90;99.90;;;;;;5095646;28;20998;-68
2022/11/07 09:49:49;;;;;;;19.87;18.00;;;13.00;99.90;;;;;;5091700;28;20463;-68
2022/11/07 09:52:23;;;;;;;19.17;17.40;;;12.90;99.90;;;;;;5090944;28;20517;-69
2022/11/07 09:54:55;;;;;;;18.40;16.63;;;12.90;99.90;;;;;;5094703;28;21273;-69
2022/11/07 09:57:25;;;;;;;22.10;15.80;;;13.00;99.90;;;;;;5088472;28;20476;-68
2022/11/07 09:59:55;;;;;;;18.87;16.97;;;13.00;99.90;;;;;;5091135;28;20457;-69
2022/11/07 10:02:25;;;;;;;32.73;16.70;;;13.10;99.90;;;;;;5088401;28;20470;-69
2022/11/07 10:04:56;;;;;;;17.80;16.23;;;13.20;99.90;;;;;;5089284;28;20823;-69
2022/11/07 10:07:31;;;;;;;17.90;14.63;;;13.30;99.90;;;;;;5089367;28;20986;-70
2022/11/07 10:10:05;;;;;;;15.57;14.03;;;13.20;99.90;;;;;;5091069;28;20554;-70
2022/11/07 10:12:47;;;;;;;15.67;13.93;;;13.20;99.90;;;;;;5096927;28;20477;-70
2022/11/07 10:15:24;;;;;;;20.17;14.67;;;13.30;99.90;;;;;;5079769;28;20457;-70
2022/11/07 10:17:59;;;;;;;25.93;12.23;;;13.30;99.90;;;;;;5090163;28;21335;-69
2022/11/07 10:20:38;;;;;;;13.63;12.17;;;13.40;99.90;;;;;;5091527;28;20463;-68
2022/11/07 10:23:18;;;;;;;16.43;12.30;;;13.40;99.90;;;;;;5098890;28;20553;-69
2022/11/07 10:25:50;;;;;;;12.13;10.97;;;13.40;99.90;;;;;;5092119;28;20722;-70
2022/11/07 10:28:20;;;;;;;16.87;14.30;;;13.40;99.90;;;;;;5095323;28;20487;-69
2022/11/07 10:30:50;;;;;;;18.77;15.03;;;13.40;99.90;;;;;;5095166;28;20454;-68
2022/11/07 10:33:26;;;;;;;16.93;15.20;;;13.40;99.90;;;;;;5094193;28;20453;-68
2022/11/07 10:35:58;;;;;;;20.27;15.47;;;13.50;99.90;;;;;;5098789;28;20469;-68
2022/11/07 10:38:27;;;;;;;16.10;13.70;;;13.60;99.90;;;;;;5092056;28;20552;-68
2022/11/07 10:40:55;;;;;;;15.17;13.70;;;13.60;99.90;;;;;;5088795;28;20470;-68
2022/11/07 10:43:29;;;;;;;24.47;14.37;;;13.60;99.90;;;;;;5093199;28;20469;-68
2022/11/07 10:45:57;;;;;;;13.33;11.80;;;13.60;99.90;;;;;;5092339;28;20453;-69
2022/11/07 10:48:28;;;;;;;16.27;12.47;;;13.60;99.90;;;;;;5091257;28;20490;-68
2022/11/07 10:50:55;;;;;;;13.17;11.50;;;13.70;99.90;;;;;;5098224;28;20677;-69
2022/11/07 10:53:25;;;;;;;19.70;11.37;;;13.80;99.90;;;;;;5083013;28;20493;-69
2022/11/07 10:55:53;;;;;;;13.80;11.70;;;14.00;99.90;;;;;;5093453;28;21028;-68
2022/11/07 10:58:21;;;;;;;11.93;10.70;;;14.40;99.90;;;;;;5100479;28;20449;-67
2022/11/07 11:01:05;;;;;;;14.93;11.10;;;14.80;99.90;;;;;;5093614;28;20465;-68
2022/11/07 11:03:33;;;;;;;11.90;10.73;;;14.80;99.90;;;;;;5094523;28;20459;-69
2022/11/07 11:06:10;;;;;;;13.30;11.97;;;14.50;99.90;;;;;;5096965;28;20465;-68
2022/11/07 11:08:38;;;;;;;22.23;12.50;;;14.60;99.90;;;;;;5096613;28;20492;-68
2022/11/07 11:11:14;;;;;;;11.80;10.90;;;14.70;99.90;;;;;;5093143;27;20462;-68
2022/11/07 11:13:41;;;;;;;14.30;12.80;;;14.80;99.90;;;;;;5090481;28;20508;-68
2022/11/07 11:16:25;;;;;;;13.00;11.80;;;14.70;99.90;;;;;;5094771;28;20480;-68
2022/11/07 11:18:54;;;;;;;14.03;12.70;;;14.90;99.90;;;;;;5093875;28;20449;-69
2022/11/07 11:21:21;;;;;;;25.20;13.90;;;14.80;99.90;;;;;;5093886;28;21227;-70
2022/11/07 11:23:49;;;;;;;14.40;13.00;;;14.70;99.90;;;;;;5092500;28;20462;-70
2022/11/07 11:26:25;;;;;;;13.37;12.27;;;14.70;99.90;;;;;;5091343;28;20457;-69
2022/11/07 11:28:58;;;;;;;15.83;13.00;;;14.70;99.90;;;;;;5097972;28;20492;-69
2022/11/07 11:31:31;;;;;;;13.30;12.20;;;14.60;99.90;;;;;;5092501;28;20465;-71
2022/11/07 11:34:04;;;;;;;13.33;12.20;;;14.70;99.90;;;;;;5098138;28;20522;-70
2022/11/07 11:36:36;;;;;;;14.87;13.47;;;14.80;99.90;;;;;;5093494;28;20465;-70
2022/11/07 11:39:05;;;;;;;14.67;12.30;;;14.90;99.90;;;;;;5099498;28;20466;-69
2022/11/07 11:41:41;;;;;;;17.57;13.83;;;15.00;99.90;;;;;;5093077;28;20465;-69
2022/11/07 11:44:17;;;;;;;15.47;14.07;;;15.10;99.90;;;;;;5096868;28;20999;-70
2022/11/07 11:46:53;;;;;;;14.63;13.30;;;15.20;99.90;;;;;;5096744;28;20994;-69
2022/11/07 11:49:28;;;;;;;15.23;14.03;;;15.20;99.90;;;;;;5095984;28;20558;-71
2022/11/07 11:51:58;;;;;;;14.77;13.23;;;15.40;99.90;;;;;;5096592;28;20493;-68
2022/11/07 11:54:25;;;;;;;15.43;13.87;;;15.50;99.90;;;;;;5097824;28;20825;-69
2022/11/07 11:56:54;;;;;;;15.07;14.07;;;15.50;99.90;;;;;;5097214;28;20531;-68
2022/11/07 11:59:51;;;;;;;14.90;13.80;;;15.60;99.90;;;;;;5091904;28;20813;-69
2022/11/07 12:02:41;;;;;;;15.00;13.83;;;15.70;99.90;;;;;;5097383;28;20522;-69
2022/11/07 12:05:33;;;;;;;15.90;14.63;;;15.80;99.90;;;;;;5095018;28;20460;-70
2022/11/07 12:08:13;;;;;;;15.40;13.93;;;16.00;99.90;;;;;;5093697;28;20492;-69
2022/11/07 12:10:46;;;;;;;14.90;13.83;;;16.00;99.90;;;;;;5097010;28;20681;-68
2022/11/07 12:13:21;;;;;;;15.97;14.50;;;15.90;99.90;;;;;;5098669;28;20469;-69
2022/11/07 12:15:58;;;;;;;15.10;14.03;;;16.00;99.90;;;;;;5088038;28;20461;-71
2022/11/07 12:18:35;;;;;;;23.17;16.37;;;16.00;99.90;;;;;;5090965;28;20468;-69
2022/11/07 12:21:14;;;;;;;15.43;14.20;;;16.00;99.90;;;;;;5090792;28;20466;-69
2022/11/07 12:23:53;;;;;;;15.50;14.30;;;15.90;99.90;;;;;;5095281;28;20539;-69
2022/11/07 12:26:26;;;;;;;15.80;14.60;;;16.20;99.90;;;;;;5096762;28;20457;-68
2022/11/07 12:29:02;;;;;;;16.20;14.63;;;16.40;99.90;;;;;;5094742;28;20567;-69
2022/11/07 12:31:49;;;;;;;14.90;13.90;;;16.60;99.90;;;;;;5100772;28;20829;-68
2022/11/07 12:34:29;;;;;;;15.57;14.13;;;16.60;99.90;;;;;;5093625;28;20458;-71
2022/11/07 12:37:16;;;;;;;16.10;15.00;;;16.30;99.90;;;;;;5087375;28;20519;-69
2022/11/07 12:39:55;;;;;;;16.30;15.10;;;16.50;99.90;;;;;;5095071;28;20462;-69
2022/11/07 12:42:34;;;;;;;15.97;14.77;;;16.70;99.90;;;;;;5095217;28;20461;-69
2022/11/07 12:45:15;;;;;;;16.23;14.80;;;16.90;99.90;;;;;;5096065;28;20505;-69
2022/11/07 12:47:58;;;;;;;16.03;14.70;;;16.80;99.90;;;;;;5092815;28;20465;-70
2022/11/07 12:50:39;;;;;;;17.37;15.67;;;16.70;99.90;;;;;;5093693;28;20462;-69
2022/11/07 12:53:16;;;;;;;16.57;15.17;;;16.70;99.90;;;;;;5092642;28;20464;-71
2022/11/07 12:55:46;;;;;;;16.20;15.10;;;16.90;99.90;;;;;;5098747;28;20469;-69
2022/11/07 12:58:20;;;;;;;16.20;14.73;;;17.10;99.90;;;;;;5093708;28;20446;-68
2022/11/07 13:00:49;;;;;;;15.70;14.57;;;17.20;99.90;;;;;;5092482;28;20462;-70
2022/11/07 13:03:40;;;;;;;17.13;15.60;;;16.90;99.90;;;;;;5089628;28;20535;-71
2022/11/07 13:06:15;;;;;;;16.33;15.27;;;16.80;99.90;;;;;;5095338;28;20470;-69